sensor_id;sensor_type;location;lat;lon;timestamp;temperature;humidity
71175;DHT22;58876;51.994;4.472;2023-04-25T00:00:21;8.40;73.57
71175;DHT22;58876;51.994;4.472;2023-04-25T00:02:47;8.34;73.79
71175;DHT22;58876;51.994;4.472;2023-04-25T00:05:12;8.40;73.55
71175;DHT22;58876;51.994;4.472;2023-04-25T00:07:40;8.44;73.68
71175;DHT22;58876;51.994;4.472;2023-04-25T00:10:08;8.37;73.56
71175;DHT22;58876;51.994;4.472;2023-04-25T00:12:34;8.40;73.35
71175;DHT22;58876;51.994;4.472;2023-04-25T00:14:59;8.30;73.28
71175;DHT22;58876;51.994;4.472;2023-04-25T00:17:25;8.37;73.18
71175;DHT22;58876;51.994;4.472;2023-04-25T00:19:52;8.41;73.01
71175;DHT22;58876;51.994;4.472;2023-04-25T00:22:17;8.41;72.68
71175;DHT22;58876;51.994;4.472;2023-04-25T00:24:43;8.42;72.42
71175;DHT22;58876;51.994;4.472;2023-04-25T00:27:09;8.38;71.90
71175;DHT22;58876;51.994;4.472;2023-04-25T00:29:34;8.40;71.76
71175;DHT22;58876;51.994;4.472;2023-04-25T00:31:59;8.38;71.97
71175;DHT22;58876;51.994;4.472;2023-04-25T00:34:25;8.37;71.47
71175;DHT22;58876;51.994;4.472;2023-04-25T00:36:51;8.38;71.39
71175;DHT22;58876;51.994;4.472;2023-04-25T00:39:16;8.34;71.39
71175;DHT22;58876;51.994;4.472;2023-04-25T00:41:42;8.35;71.40
71175;DHT22;58876;51.994;4.472;2023-04-25T00:44:09;8.30;71.50
71175;DHT22;58876;51.994;4.472;2023-04-25T00:46:36;8.38;71.40
71175;DHT22;58876;51.994;4.472;2023-04-25T00:49:02;8.48;71.22
71175;DHT22;58876;51.994;4.472;2023-04-25T00:51:28;8.51;70.91
71175;DHT22;58876;51.994;4.472;2023-04-25T00:53:54;8.49;70.82
71175;DHT22;58876;51.994;4.472;2023-04-25T00:56:20;8.52;70.61
71175;DHT22;58876;51.994;4.472;2023-04-25T00:58:47;8.54;70.44
71175;DHT22;58876;51.994;4.472;2023-04-25T01:01:13;8.56;70.43
71175;DHT22;58876;51.994;4.472;2023-04-25T01:03:40;8.48;69.73
71175;DHT22;58876;51.994;4.472;2023-04-25T01:06:10;8.48;69.71
71175;DHT22;58876;51.994;4.472;2023-04-25T01:08:38;8.49;69.63
71175;DHT22;58876;51.994;4.472;2023-04-25T01:11:04;8.52;69.11
71175;DHT22;58876;51.994;4.472;2023-04-25T01:13:30;8.46;68.30
71175;DHT22;58876;51.994;4.472;2023-04-25T01:15:58;8.44;68.05
71175;DHT22;58876;51.994;4.472;2023-04-25T01:18:24;8.35;68.15
71175;DHT22;58876;51.994;4.472;2023-04-25T01:20:53;8.34;67.67
71175;DHT22;58876;51.994;4.472;2023-04-25T01:23:22;8.37;68.11
71175;DHT22;58876;51.994;4.472;2023-04-25T01:25:49;8.40;68.05
71175;DHT22;58876;51.994;4.472;2023-04-25T01:28:14;8.30;68.24
71175;DHT22;58876;51.994;4.472;2023-04-25T01:30:41;8.37;68.06
71175;DHT22;58876;51.994;4.472;2023-04-25T01:33:08;8.40;67.92
71175;DHT22;58876;51.994;4.472;2023-04-25T01:35:33;8.34;67.60
71175;DHT22;58876;51.994;4.472;2023-04-25T01:37:59;8.28;67.42
71175;DHT22;58876;51.994;4.472;2023-04-25T01:40:27;8.28;67.36
71175;DHT22;58876;51.994;4.472;2023-04-25T01:42:53;8.34;67.50
71175;DHT22;58876;51.994;4.472;2023-04-25T01:45:19;8.35;66.75
71175;DHT22;58876;51.994;4.472;2023-04-25T01:47:44;8.33;67.06
71175;DHT22;58876;51.994;4.472;2023-04-25T01:50:16;8.35;67.01
71175;DHT22;58876;51.994;4.472;2023-04-25T01:52:42;8.31;67.15
71175;DHT22;58876;51.994;4.472;2023-04-25T01:55:08;8.35;67.02
71175;DHT22;58876;51.994;4.472;2023-04-25T01:57:33;8.37;66.34
71175;DHT22;58876;51.994;4.472;2023-04-25T02:00:02;8.35;66.01
71175;DHT22;58876;51.994;4.472;2023-04-25T02:02:28;8.42;65.56
71175;DHT22;58876;51.994;4.472;2023-04-25T02:04:54;8.49;65.74
71175;DHT22;58876;51.994;4.472;2023-04-25T02:07:20;8.51;65.85
71175;DHT22;58876;51.994;4.472;2023-04-25T02:09:46;8.56;65.97
71175;DHT22;58876;51.994;4.472;2023-04-25T02:12:11;8.59;65.75
71175;DHT22;58876;51.994;4.472;2023-04-25T02:14:37;8.55;65.50
71175;DHT22;58876;51.994;4.472;2023-04-25T02:17:02;8.55;65.89
71175;DHT22;58876;51.994;4.472;2023-04-25T02:19:28;8.58;66.35
71175;DHT22;58876;51.994;4.472;2023-04-25T02:21:53;8.59;66.90
71175;DHT22;58876;51.994;4.472;2023-04-25T02:24:19;8.54;67.12
71175;DHT22;58876;51.994;4.472;2023-04-25T02:26:44;8.25;69.36
71175;DHT22;58876;51.994;4.472;2023-04-25T02:29:12;8.21;70.50
71175;DHT22;58876;51.994;4.472;2023-04-25T02:31:38;8.27;70.11
71175;DHT22;58876;51.994;4.472;2023-04-25T02:34:03;8.34;70.87
71175;DHT22;58876;51.994;4.472;2023-04-25T02:36:29;8.40;70.90
71175;DHT22;58876;51.994;4.472;2023-04-25T02:38:57;8.44;71.31
71175;DHT22;58876;51.994;4.472;2023-04-25T02:41:22;8.38;70.10
71175;DHT22;58876;51.994;4.472;2023-04-25T02:43:48;8.37;70.51
71175;DHT22;58876;51.994;4.472;2023-04-25T02:46:14;8.41;70.61
71175;DHT22;58876;51.994;4.472;2023-04-25T02:48:40;8.45;70.47
71175;DHT22;58876;51.994;4.472;2023-04-25T02:51:05;8.45;70.31
71175;DHT22;58876;51.994;4.472;2023-04-25T02:53:30;8.42;70.21
71175;DHT22;58876;51.994;4.472;2023-04-25T02:55:56;8.44;70.62
71175;DHT22;58876;51.994;4.472;2023-04-25T02:58:23;8.49;70.79
71175;DHT22;58876;51.994;4.472;2023-04-25T03:00:49;8.52;70.15
71175;DHT22;58876;51.994;4.472;2023-04-25T03:03:14;8.44;70.00
71175;DHT22;58876;51.994;4.472;2023-04-25T03:05:45;8.27;70.62
71175;DHT22;58876;51.994;4.472;2023-04-25T03:08:12;8.27;69.11
71175;DHT22;58876;51.994;4.472;2023-04-25T03:10:38;8.27;68.53
71175;DHT22;58876;51.994;4.472;2023-04-25T03:13:04;8.21;67.67
71175;DHT22;58876;51.994;4.472;2023-04-25T03:15:29;8.33;67.54
71175;DHT22;58876;51.994;4.472;2023-04-25T03:17:56;8.37;67.92
71175;DHT22;58876;51.994;4.472;2023-04-25T03:20:22;8.46;67.40
71175;DHT22;58876;51.994;4.472;2023-04-25T03:22:47;8.56;67.68
71175;DHT22;58876;51.994;4.472;2023-04-25T03:25:12;8.58;67.52
71175;DHT22;58876;51.994;4.472;2023-04-25T03:27:38;8.55;67.24
71175;DHT22;58876;51.994;4.472;2023-04-25T03:30:04;8.61;67.70
71175;DHT22;58876;51.994;4.472;2023-04-25T03:32:30;8.56;68.06
71175;DHT22;58876;51.994;4.472;2023-04-25T03:34:55;8.61;68.76
71175;DHT22;58876;51.994;4.472;2023-04-25T03:37:21;8.69;68.45
71175;DHT22;58876;51.994;4.472;2023-04-25T03:39:46;8.72;68.40
71175;DHT22;58876;51.994;4.472;2023-04-25T03:42:11;8.73;68.48
71175;DHT22;58876;51.994;4.472;2023-04-25T03:44:37;8.66;68.73
71175;DHT22;58876;51.994;4.472;2023-04-25T03:47:02;8.68;69.20
71175;DHT22;58876;51.994;4.472;2023-04-25T03:49:28;8.68;68.68
71175;DHT22;58876;51.994;4.472;2023-04-25T03:51:53;8.46;68.67
71175;DHT22;58876;51.994;4.472;2023-04-25T03:54:19;8.51;68.77
71175;DHT22;58876;51.994;4.472;2023-04-25T03:56:44;8.44;68.78
71175;DHT22;58876;51.994;4.472;2023-04-25T03:59:10;8.49;69.08
71175;DHT22;58876;51.994;4.472;2023-04-25T04:01:35;8.35;69.68
71175;DHT22;58876;51.994;4.472;2023-04-25T04:04:01;8.49;70.01
71175;DHT22;58876;51.994;4.472;2023-04-25T04:06:26;8.52;69.72
71175;DHT22;58876;51.994;4.472;2023-04-25T04:08:52;8.52;68.51
71175;DHT22;58876;51.994;4.472;2023-04-25T04:11:17;8.55;69.01
71175;DHT22;58876;51.994;4.472;2023-04-25T04:13:43;8.65;69.28
71175;DHT22;58876;51.994;4.472;2023-04-25T04:16:08;8.63;68.84
71175;DHT22;58876;51.994;4.472;2023-04-25T04:18:34;8.63;68.65
71175;DHT22;58876;51.994;4.472;2023-04-25T04:20:59;8.58;67.45
71175;DHT22;58876;51.994;4.472;2023-04-25T04:23:25;8.52;66.96
71175;DHT22;58876;51.994;4.472;2023-04-25T04:25:52;8.56;67.61
71175;DHT22;58876;51.994;4.472;2023-04-25T04:28:19;8.58;67.47
71175;DHT22;58876;51.994;4.472;2023-04-25T04:30:45;8.65;67.27
71175;DHT22;58876;51.994;4.472;2023-04-25T04:33:11;8.73;66.95
71175;DHT22;58876;51.994;4.472;2023-04-25T04:35:37;8.77;66.39
71175;DHT22;58876;51.994;4.472;2023-04-25T04:38:03;8.71;66.23
71175;DHT22;58876;51.994;4.472;2023-04-25T04:40:28;8.68;65.87
71175;DHT22;58876;51.994;4.472;2023-04-25T04:42:56;8.68;66.43
71175;DHT22;58876;51.994;4.472;2023-04-25T04:45:23;8.66;66.77
71175;DHT22;58876;51.994;4.472;2023-04-25T04:47:49;8.68;66.66
71175;DHT22;58876;51.994;4.472;2023-04-25T04:50:16;8.58;66.63
71175;DHT22;58876;51.994;4.472;2023-04-25T04:52:42;8.59;66.78
71175;DHT22;58876;51.994;4.472;2023-04-25T04:55:08;8.52;66.48
71175;DHT22;58876;51.994;4.472;2023-04-25T04:57:34;8.34;67.50
71175;DHT22;58876;51.994;4.472;2023-04-25T05:00:00;8.28;67.62
71175;DHT22;58876;51.994;4.472;2023-04-25T05:02:26;8.49;67.62
71175;DHT22;58876;51.994;4.472;2023-04-25T05:04:52;8.58;68.17
71175;DHT22;58876;51.994;4.472;2023-04-25T05:07:18;8.73;68.07
71175;DHT22;58876;51.994;4.472;2023-04-25T05:09:44;8.75;68.31
71175;DHT22;58876;51.994;4.472;2023-04-25T05:12:10;8.79;68.87
71175;DHT22;58876;51.994;4.472;2023-04-25T05:14:35;8.83;69.14
71175;DHT22;58876;51.994;4.472;2023-04-25T05:17:01;8.86;69.09
71175;DHT22;58876;51.994;4.472;2023-04-25T05:19:30;8.85;69.30
71175;DHT22;58876;51.994;4.472;2023-04-25T05:21:55;8.80;69.46
71175;DHT22;58876;51.994;4.472;2023-04-25T05:24:21;8.79;69.63
71175;DHT22;58876;51.994;4.472;2023-04-25T05:26:46;8.68;69.34
71175;DHT22;58876;51.994;4.472;2023-04-25T05:29:12;8.55;69.32
71175;DHT22;58876;51.994;4.472;2023-04-25T05:31:37;8.44;69.40
71175;DHT22;58876;51.994;4.472;2023-04-25T05:34:03;8.34;69.65
71175;DHT22;58876;51.994;4.472;2023-04-25T05:36:28;8.35;69.48
71175;DHT22;58876;51.994;4.472;2023-04-25T05:38:54;8.24;68.86
71175;DHT22;58876;51.994;4.472;2023-04-25T05:41:19;8.20;69.09
71175;DHT22;58876;51.994;4.472;2023-04-25T05:43:45;8.31;68.34
71175;DHT22;58876;51.994;4.472;2023-04-25T05:46:12;8.54;67.41
71175;DHT22;58876;51.994;4.472;2023-04-25T05:48:39;8.45;66.37
71175;DHT22;58876;51.994;4.472;2023-04-25T05:51:05;8.42;66.53
71175;DHT22;58876;51.994;4.472;2023-04-25T05:53:30;8.44;66.64
71175;DHT22;58876;51.994;4.472;2023-04-25T05:55:56;8.46;66.30
71175;DHT22;58876;51.994;4.472;2023-04-25T05:58:21;8.25;65.78
71175;DHT22;58876;51.994;4.472;2023-04-25T06:00:47;8.14;65.77
71175;DHT22;58876;51.994;4.472;2023-04-25T06:03:12;7.94;65.97
71175;DHT22;58876;51.994;4.472;2023-04-25T06:05:43;7.79;67.23
71175;DHT22;58876;51.994;4.472;2023-04-25T06:08:09;7.84;67.48
71175;DHT22;58876;51.994;4.472;2023-04-25T06:10:36;7.89;68.65
71175;DHT22;58876;51.994;4.472;2023-04-25T06:13:02;7.86;70.01
71175;DHT22;58876;51.994;4.472;2023-04-25T06:15:27;8.01;70.73
71175;DHT22;58876;51.994;4.472;2023-04-25T06:17:53;8.21;70.52
71175;DHT22;58876;51.994;4.472;2023-04-25T06:20:18;8.25;69.74
71175;DHT22;58876;51.994;4.472;2023-04-25T06:22:48;8.49;69.95
71175;DHT22;58876;51.994;4.472;2023-04-25T06:25:14;8.58;69.26
71175;DHT22;58876;51.994;4.472;2023-04-25T06:27:39;8.71;69.20
71175;DHT22;58876;51.994;4.472;2023-04-25T06:30:05;8.73;69.73
71175;DHT22;58876;51.994;4.472;2023-04-25T06:32:31;8.87;69.49
71175;DHT22;58876;51.994;4.472;2023-04-25T06:34:57;8.93;68.62
71175;DHT22;58876;51.994;4.472;2023-04-25T06:37:23;9.14;68.24
71175;DHT22;58876;51.994;4.472;2023-04-25T06:39:48;9.37;67.73
71175;DHT22;58876;51.994;4.472;2023-04-25T06:42:14;9.48;66.85
71175;DHT22;58876;51.994;4.472;2023-04-25T06:44:40;9.70;66.66
71175;DHT22;58876;51.994;4.472;2023-04-25T06:47:05;9.92;65.75
71175;DHT22;58876;51.994;4.472;2023-04-25T06:49:34;10.05;65.36
71175;DHT22;58876;51.994;4.472;2023-04-25T06:51:59;9.99;64.14
71175;DHT22;58876;51.994;4.472;2023-04-25T06:54:25;10.08;64.75
71175;DHT22;58876;51.994;4.472;2023-04-25T06:56:53;10.16;64.52
71175;DHT22;58876;51.994;4.472;2023-04-25T06:59:18;9.88;62.82
71175;DHT22;58876;51.994;4.472;2023-04-25T07:01:44;9.88;62.96
71175;DHT22;58876;51.994;4.472;2023-04-25T07:04:09;9.85;63.36
71175;DHT22;58876;51.994;4.472;2023-04-25T07:06:35;9.81;63.34
71175;DHT22;58876;51.994;4.472;2023-04-25T07:09:03;9.70;63.75
71175;DHT22;58876;51.994;4.472;2023-04-25T07:11:29;9.75;64.03
71175;DHT22;58876;51.994;4.472;2023-04-25T07:13:55;9.83;64.90
71175;DHT22;58876;51.994;4.472;2023-04-25T07:16:20;9.89;64.06
71175;DHT22;58876;51.994;4.472;2023-04-25T07:18:46;10.30;63.20
71175;DHT22;58876;51.994;4.472;2023-04-25T07:21:11;10.63;61.80
71175;DHT22;58876;51.994;4.472;2023-04-25T07:23:37;11.11;61.68
71175;DHT22;58876;51.994;4.472;2023-04-25T07:26:05;11.63;59.97
71175;DHT22;58876;51.994;4.472;2023-04-25T07:28:31;11.97;57.46
71175;DHT22;58876;51.994;4.472;2023-04-25T07:30:56;11.42;59.16
71175;DHT22;58876;51.994;4.472;2023-04-25T07:33:23;11.15;59.91
71175;DHT22;58876;51.994;4.472;2023-04-25T07:35:48;10.80;60.29
71175;DHT22;58876;51.994;4.472;2023-04-25T07:38:14;10.28;61.56
71175;DHT22;58876;51.994;4.472;2023-04-25T07:40:40;10.23;60.98
71175;DHT22;58876;51.994;4.472;2023-04-25T07:43:05;10.80;59.98
71175;DHT22;58876;51.994;4.472;2023-04-25T07:45:31;11.66;57.49
71175;DHT22;58876;51.994;4.472;2023-04-25T07:47:56;12.60;52.47
71175;DHT22;58876;51.994;4.472;2023-04-25T07:50:21;13.55;49.67
71175;DHT22;58876;51.994;4.472;2023-04-25T07:52:47;14.80;45.63
71175;DHT22;58876;51.994;4.472;2023-04-25T07:55:12;15.86;43.57
71175;DHT22;58876;51.994;4.472;2023-04-25T07:57:38;15.31;43.55
71175;DHT22;58876;51.994;4.472;2023-04-25T08:00:04;13.04;47.12
71175;DHT22;58876;51.994;4.472;2023-04-25T08:02:34;11.94;50.81
71175;DHT22;58876;51.994;4.472;2023-04-25T08:04:59;10.98;53.60
71175;DHT22;58876;51.994;4.472;2023-04-25T08:07:25;10.78;56.09
71175;DHT22;58876;51.994;4.472;2023-04-25T08:09:50;10.26;55.63
71175;DHT22;58876;51.994;4.472;2023-04-25T08:12:16;9.96;56.02
71175;DHT22;58876;51.994;4.472;2023-04-25T08:14:41;10.10;56.37
71175;DHT22;58876;51.994;4.472;2023-04-25T08:17:07;10.17;57.76
71175;DHT22;58876;51.994;4.472;2023-04-25T08:19:32;10.14;58.98
71175;DHT22;58876;51.994;4.472;2023-04-25T08:21:57;10.14;57.13
71175;DHT22;58876;51.994;4.472;2023-04-25T08:24:23;10.71;55.54
71175;DHT22;58876;51.994;4.472;2023-04-25T08:26:49;12.46;51.49
71175;DHT22;58876;51.994;4.472;2023-04-25T08:29:15;14.08;48.58
71175;DHT22;58876;51.994;4.472;2023-04-25T08:31:40;13.38;47.27
71175;DHT22;58876;51.994;4.472;2023-04-25T08:34:06;12.44;49.18
71175;DHT22;58876;51.994;4.472;2023-04-25T08:36:31;12.35;51.13
71175;DHT22;58876;51.994;4.472;2023-04-25T08:38:58;11.40;49.51
71175;DHT22;58876;51.994;4.472;2023-04-25T08:41:24;10.77;53.00
71175;DHT22;58876;51.994;4.472;2023-04-25T08:43:51;10.08;57.36
71175;DHT22;58876;51.994;4.472;2023-04-25T08:46:18;10.01;58.36
71175;DHT22;58876;51.994;4.472;2023-04-25T08:48:45;10.30;59.46
71175;DHT22;58876;51.994;4.472;2023-04-25T08:51:20;10.44;56.82
71175;DHT22;58876;51.994;4.472;2023-04-25T08:53:50;10.71;56.10
71175;DHT22;58876;51.994;4.472;2023-04-25T08:56:17;10.53;55.74
71175;DHT22;58876;51.994;4.472;2023-04-25T08:58:49;10.81;56.90
71175;DHT22;58876;51.994;4.472;2023-04-25T09:01:18;10.97;54.10
71175;DHT22;58876;51.994;4.472;2023-04-25T09:03:44;12.16;52.67
71175;DHT22;58876;51.994;4.472;2023-04-25T09:06:13;12.18;51.55
71175;DHT22;58876;51.994;4.472;2023-04-25T09:08:41;12.24;49.16
71175;DHT22;58876;51.994;4.472;2023-04-25T09:11:07;12.34;47.46
71175;DHT22;58876;51.994;4.472;2023-04-25T09:13:32;12.07;48.82
71175;DHT22;58876;51.994;4.472;2023-04-25T09:15:58;12.11;49.07
71175;DHT22;58876;51.994;4.472;2023-04-25T09:18:34;12.24;48.42
71175;DHT22;58876;51.994;4.472;2023-04-25T09:21:11;12.32;48.92
71175;DHT22;58876;51.994;4.472;2023-04-25T09:24:00;12.72;48.62
71175;DHT22;58876;51.994;4.472;2023-04-25T09:26:25;12.42;48.60
71175;DHT22;58876;51.994;4.472;2023-04-25T09:29:05;12.13;49.94
71175;DHT22;58876;51.994;4.472;2023-04-25T09:31:33;12.21;49.65
71175;DHT22;58876;51.994;4.472;2023-04-25T09:34:02;12.59;49.23
71175;DHT22;58876;51.994;4.472;2023-04-25T09:36:27;13.14;50.70
71175;DHT22;58876;51.994;4.472;2023-04-25T09:38:53;12.90;47.66
71175;DHT22;58876;51.994;4.472;2023-04-25T09:41:23;13.47;46.20
71175;DHT22;58876;51.994;4.472;2023-04-25T09:43:49;13.40;46.82
71175;DHT22;58876;51.994;4.472;2023-04-25T09:46:16;12.80;45.92
71175;DHT22;58876;51.994;4.472;2023-04-25T09:48:49;12.96;47.43
71175;DHT22;58876;51.994;4.472;2023-04-25T09:51:15;12.92;47.95
71175;DHT22;58876;51.994;4.472;2023-04-25T09:53:43;12.76;49.24
71175;DHT22;58876;51.994;4.472;2023-04-25T09:56:11;12.31;50.73
71175;DHT22;58876;51.994;4.472;2023-04-25T09:58:39;12.44;51.11
71175;DHT22;58876;51.994;4.472;2023-04-25T10:01:07;11.93;51.78
71175;DHT22;58876;51.994;4.472;2023-04-25T10:03:35;11.43;53.63
71175;DHT22;58876;51.994;4.472;2023-04-25T10:06:03;11.16;55.94
71175;DHT22;58876;51.994;4.472;2023-04-25T10:08:36;11.40;55.64
71175;DHT22;58876;51.994;4.472;2023-04-25T10:11:06;11.25;55.89
71175;DHT22;58876;51.994;4.472;2023-04-25T10:13:34;10.77;57.81
71175;DHT22;58876;51.994;4.472;2023-04-25T10:16:04;11.42;56.62
71175;DHT22;58876;51.994;4.472;2023-04-25T10:18:31;12.32;54.48
71175;DHT22;58876;51.994;4.472;2023-04-25T10:21:00;12.73;52.62
71175;DHT22;58876;51.994;4.472;2023-04-25T10:23:27;12.04;54.50
71175;DHT22;58876;51.994;4.472;2023-04-25T10:25:55;11.43;56.68
71175;DHT22;58876;51.994;4.472;2023-04-25T10:28:21;10.90;56.69
71175;DHT22;58876;51.994;4.472;2023-04-25T10:31:04;10.50;57.55
71175;DHT22;58876;51.994;4.472;2023-04-25T10:33:40;10.78;58.21
71175;DHT22;58876;51.994;4.472;2023-04-25T10:36:10;11.38;55.91
71175;DHT22;58876;51.994;4.472;2023-04-25T10:38:36;11.90;56.12
71175;DHT22;58876;51.994;4.472;2023-04-25T10:41:05;12.31;54.24
71175;DHT22;58876;51.994;4.472;2023-04-25T10:45:57;12.41;51.80
71175;DHT22;58876;51.994;4.472;2023-04-25T10:48:28;12.20;51.25
71175;DHT22;58876;51.994;4.472;2023-04-25T10:51:11;12.17;49.18
71175;DHT22;58876;51.994;4.472;2023-04-25T10:53:37;11.70;51.40
71175;DHT22;58876;51.994;4.472;2023-04-25T10:56:21;11.12;52.36
71175;DHT22;58876;51.994;4.472;2023-04-25T10:58:47;11.50;53.69
71175;DHT22;58876;51.994;4.472;2023-04-25T11:01:19;11.47;54.12
71175;DHT22;58876;51.994;4.472;2023-04-25T11:03:45;11.07;53.42
71175;DHT22;58876;51.994;4.472;2023-04-25T11:06:29;11.11;54.23
71175;DHT22;58876;51.994;4.472;2023-04-25T11:08:57;11.67;53.17
71175;DHT22;58876;51.994;4.472;2023-04-25T11:11:25;12.01;51.62
71175;DHT22;58876;51.994;4.472;2023-04-25T11:13:51;12.05;49.67
71175;DHT22;58876;51.994;4.472;2023-04-25T11:16:17;11.49;53.62
71175;DHT22;58876;51.994;4.472;2023-04-25T11:18:44;11.50;53.28
71175;DHT22;58876;51.994;4.472;2023-04-25T11:21:10;11.52;50.35
71175;DHT22;58876;51.994;4.472;2023-04-25T11:23:36;11.77;50.96
71175;DHT22;58876;51.994;4.472;2023-04-25T11:26:03;11.50;49.89
71175;DHT22;58876;51.994;4.472;2023-04-25T11:28:28;11.63;49.11
71175;DHT22;58876;51.994;4.472;2023-04-25T11:30:54;12.00;47.46
71175;DHT22;58876;51.994;4.472;2023-04-25T11:33:24;12.18;47.81
71175;DHT22;58876;51.994;4.472;2023-04-25T11:35:53;12.46;46.35
71175;DHT22;58876;51.994;4.472;2023-04-25T11:38:20;12.42;48.32
71175;DHT22;58876;51.994;4.472;2023-04-25T11:40:51;11.95;50.39
71175;DHT22;58876;51.994;4.472;2023-04-25T11:43:19;11.65;47.94
71175;DHT22;58876;51.994;4.472;2023-04-25T11:45:49;11.90;50.62
71175;DHT22;58876;51.994;4.472;2023-04-25T11:48:16;12.27;50.03
71175;DHT22;58876;51.994;4.472;2023-04-25T11:50:42;11.76;48.27
71175;DHT22;58876;51.994;4.472;2023-04-25T11:53:08;12.05;47.29
71175;DHT22;58876;51.994;4.472;2023-04-25T11:55:34;12.34;48.58
71175;DHT22;58876;51.994;4.472;2023-04-25T11:58:01;12.63;47.38
71175;DHT22;58876;51.994;4.472;2023-04-25T12:00:27;12.53;49.12
71175;DHT22;58876;51.994;4.472;2023-04-25T12:02:54;12.13;47.65
71175;DHT22;58876;51.994;4.472;2023-04-25T12:05:24;11.65;51.53
71175;DHT22;58876;51.994;4.472;2023-04-25T12:07:49;11.40;52.24
71175;DHT22;58876;51.994;4.472;2023-04-25T12:10:17;11.43;52.77
71175;DHT22;58876;51.994;4.472;2023-04-25T12:12:45;11.65;48.27
71175;DHT22;58876;51.994;4.472;2023-04-25T12:15:22;12.00;49.87
71175;DHT22;58876;51.994;4.472;2023-04-25T12:17:50;12.38;50.54
71175;DHT22;58876;51.994;4.472;2023-04-25T12:20:21;12.50;51.58
71175;DHT22;58876;51.994;4.472;2023-04-25T12:22:49;12.53;48.85
71175;DHT22;58876;51.994;4.472;2023-04-25T12:25:34;12.50;47.80
71175;DHT22;58876;51.994;4.472;2023-04-25T12:28:18;12.02;49.80
71175;DHT22;58876;51.994;4.472;2023-04-25T12:33:22;11.65;48.72
71175;DHT22;58876;51.994;4.472;2023-04-25T12:35:47;11.67;50.62
71175;DHT22;58876;51.994;4.472;2023-04-25T12:38:30;11.97;49.52
71175;DHT22;58876;51.994;4.472;2023-04-25T12:40:57;12.83;49.80
71175;DHT22;58876;51.994;4.472;2023-04-25T12:43:23;13.23;47.05
71175;DHT22;58876;51.994;4.472;2023-04-25T12:45:53;12.56;48.41
71175;DHT22;58876;51.994;4.472;2023-04-25T12:48:20;12.46;47.92
71175;DHT22;58876;51.994;4.472;2023-04-25T12:50:46;11.98;47.38
71175;DHT22;58876;51.994;4.472;2023-04-25T12:53:18;12.22;47.20
71175;DHT22;58876;51.994;4.472;2023-04-25T12:55:44;12.69;48.26
71175;DHT22;58876;51.994;4.472;2023-04-25T12:58:16;12.82;48.54
71175;DHT22;58876;51.994;4.472;2023-04-25T13:00:42;12.55;50.09
71175;DHT22;58876;51.994;4.472;2023-04-25T13:03:08;12.24;49.89
71175;DHT22;58876;51.994;4.472;2023-04-25T13:05:34;12.32;50.19
71175;DHT22;58876;51.994;4.472;2023-04-25T13:07:59;12.69;49.20
71175;DHT22;58876;51.994;4.472;2023-04-25T13:10:25;12.62;48.18
71175;DHT22;58876;51.994;4.472;2023-04-25T13:12:51;12.31;49.10
71175;DHT22;58876;51.994;4.472;2023-04-25T13:15:16;11.69;50.42
71175;DHT22;58876;51.994;4.472;2023-04-25T13:17:42;11.47;53.15
71175;DHT22;58876;51.994;4.472;2023-04-25T13:20:08;11.58;52.53
71175;DHT22;58876;51.994;4.472;2023-04-25T13:22:36;11.53;50.99
71175;DHT22;58876;51.994;4.472;2023-04-25T13:25:03;11.56;51.30
71175;DHT22;58876;51.994;4.472;2023-04-25T13:27:28;11.71;50.41
71175;DHT22;58876;51.994;4.472;2023-04-25T13:29:54;11.90;49.37
71175;DHT22;58876;51.994;4.472;2023-04-25T13:32:19;12.04;49.72
71175;DHT22;58876;51.994;4.472;2023-04-25T13:34:45;11.81;51.74
71175;DHT22;58876;51.994;4.472;2023-04-25T13:37:10;11.53;54.96
71175;DHT22;58876;51.994;4.472;2023-04-25T13:39:36;11.87;54.21
71175;DHT22;58876;51.994;4.472;2023-04-25T13:42:01;11.83;54.68
71175;DHT22;58876;51.994;4.472;2023-04-25T13:44:27;11.83;53.95
71175;DHT22;58876;51.994;4.472;2023-04-25T13:46:52;11.90;50.78
71175;DHT22;58876;51.994;4.472;2023-04-25T13:49:18;12.05;52.13
71175;DHT22;58876;51.994;4.472;2023-04-25T13:51:43;11.98;52.86
71175;DHT22;58876;51.994;4.472;2023-04-25T13:54:09;12.28;51.62
71175;DHT22;58876;51.994;4.472;2023-04-25T13:56:34;12.18;50.25
71175;DHT22;58876;51.994;4.472;2023-04-25T13:59:00;11.94;49.69
71175;DHT22;58876;51.994;4.472;2023-04-25T14:01:25;12.10;48.64
71175;DHT22;58876;51.994;4.472;2023-04-25T14:03:51;11.93;49.20
71175;DHT22;58876;51.994;4.472;2023-04-25T14:06:17;12.28;49.07
71175;DHT22;58876;51.994;4.472;2023-04-25T14:08:48;12.25;48.58
71175;DHT22;58876;51.994;4.472;2023-04-25T14:11:14;12.70;47.99
71175;DHT22;58876;51.994;4.472;2023-04-25T14:13:39;12.63;46.97
71175;DHT22;58876;51.994;4.472;2023-04-25T14:16:05;12.66;47.74
71175;DHT22;58876;51.994;4.472;2023-04-25T14:18:30;12.24;48.95
71175;DHT22;58876;51.994;4.472;2023-04-25T14:20:56;11.91;49.13
71175;DHT22;58876;51.994;4.472;2023-04-25T14:23:21;11.60;46.53
71175;DHT22;58876;51.994;4.472;2023-04-25T14:25:47;12.10;47.24
71175;DHT22;58876;51.994;4.472;2023-04-25T14:28:12;12.25;46.82
71175;DHT22;58876;51.994;4.472;2023-04-25T14:30:38;12.35;43.90
71175;DHT22;58876;51.994;4.472;2023-04-25T14:33:03;12.22;46.12
71175;DHT22;58876;51.994;4.472;2023-04-25T14:35:29;12.16;47.37
71175;DHT22;58876;51.994;4.472;2023-04-25T14:37:54;12.55;47.39
71175;DHT22;58876;51.994;4.472;2023-04-25T14:40:20;12.87;46.85
71175;DHT22;58876;51.994;4.472;2023-04-25T14:42:48;13.04;46.04
71175;DHT22;58876;51.994;4.472;2023-04-25T14:45:15;13.30;45.64
71175;DHT22;58876;51.994;4.472;2023-04-25T14:47:40;13.33;45.62
71175;DHT22;58876;51.994;4.472;2023-04-25T14:50:07;12.86;45.43
71175;DHT22;58876;51.994;4.472;2023-04-25T14:52:34;13.26;45.44
71175;DHT22;58876;51.994;4.472;2023-04-25T14:54:59;13.31;46.04
71175;DHT22;58876;51.994;4.472;2023-04-25T14:57:34;12.72;48.15
71175;DHT22;58876;51.994;4.472;2023-04-25T15:00:00;12.45;49.26
71175;DHT22;58876;51.994;4.472;2023-04-25T15:02:27;11.87;53.49
71175;DHT22;58876;51.994;4.472;2023-04-25T15:04:54;11.18;57.82
71175;DHT22;58876;51.994;4.472;2023-04-25T15:07:21;10.46;63.80
71175;DHT22;58876;51.994;4.472;2023-04-25T15:09:47;10.06;61.57
71175;DHT22;58876;51.994;4.472;2023-04-25T15:12:14;10.12;61.53
71175;DHT22;58876;51.994;4.472;2023-04-25T15:14:40;10.24;63.82
71175;DHT22;58876;51.994;4.472;2023-04-25T15:17:05;10.91;63.97
71175;DHT22;58876;51.994;4.472;2023-04-25T15:19:31;11.25;61.29
71175;DHT22;58876;51.994;4.472;2023-04-25T15:21:56;11.36;58.62
71175;DHT22;58876;51.994;4.472;2023-04-25T15:24:25;11.40;56.24
71175;DHT22;58876;51.994;4.472;2023-04-25T15:26:51;11.19;57.95
71175;DHT22;58876;51.994;4.472;2023-04-25T15:29:17;10.94;57.66
71175;DHT22;58876;51.994;4.472;2023-04-25T15:31:42;10.80;56.72
71175;DHT22;58876;51.994;4.472;2023-04-25T15:34:07;11.40;57.03
71175;DHT22;58876;51.994;4.472;2023-04-25T15:36:33;11.80;55.94
71175;DHT22;58876;51.994;4.472;2023-04-25T15:38:58;12.07;54.96